createdAt,value
2022-12-11T00:00:26.057Z,-3.30
2022-12-11T00:02:53.009Z,-3.50
2022-12-11T00:05:19.936Z,-3.50
2022-12-11T00:07:46.819Z,-3.50
2022-12-11T00:10:13.758Z,-3.40
2022-12-11T00:12:40.567Z,-3.40
2022-12-11T00:15:08.458Z,-3.30
2022-12-11T00:17:35.677Z,-3.20
2022-12-11T00:20:02.658Z,-3.20
2022-12-11T00:22:31.017Z,-3.30
2022-12-11T00:24:57.933Z,-3.30
2022-12-11T00:27:24.872Z,-3.30
2022-12-11T00:29:51.764Z,-3.20
2022-12-11T00:32:18.633Z,-3.20
2022-12-11T00:34:45.575Z,-3.30
2022-12-11T00:37:12.455Z,-3.30
2022-12-11T00:39:39.991Z,-3.20
2022-12-11T00:42:08.031Z,-3.20
2022-12-11T00:44:35.188Z,-3.40
2022-12-11T00:47:02.222Z,-3.40
2022-12-11T00:49:29.234Z,-3.30
2022-12-11T00:51:56.218Z,-3.30
2022-12-11T00:54:23.126Z,-3.20
2022-12-11T00:56:50.837Z,-3.20
2022-12-11T00:59:17.733Z,-3.20
2022-12-11T01:01:44.693Z,-3.20
2022-12-11T01:04:11.593Z,-3.30
2022-12-11T01:06:39.602Z,-3.40
2022-12-11T01:09:24.849Z,-3.30
2022-12-11T01:11:52.422Z,-3.30
2022-12-11T01:14:19.813Z,-3.30
2022-12-11T01:16:46.902Z,-3.30
2022-12-11T01:19:13.823Z,-3.30
2022-12-11T01:21:41.428Z,-3.20
2022-12-11T01:24:08.392Z,-3.30
2022-12-11T01:26:35.431Z,-3.50
2022-12-11T01:29:02.456Z,-3.60
2022-12-11T01:31:30.231Z,-3.50
2022-12-11T01:33:57.230Z,-3.50
2022-12-11T01:36:24.419Z,-3.40
2022-12-11T01:38:51.476Z,-3.40
2022-12-11T01:41:19.026Z,-3.30
2022-12-11T01:44:08.575Z,-3.40
2022-12-11T01:46:36.477Z,-3.40
2022-12-11T01:49:07.669Z,-3.40
2022-12-11T01:51:40.160Z,-3.40
2022-12-11T01:54:12.065Z,-3.50
2022-12-11T01:56:41.503Z,-3.50
2022-12-11T01:59:09.927Z,-3.50
2022-12-11T02:01:42.417Z,-3.50
2022-12-11T02:04:11.097Z,-3.40
2022-12-11T02:06:43.207Z,-3.40
2022-12-11T02:09:14.406Z,-3.40
2022-12-11T02:12:15.078Z,-3.60
2022-12-11T02:15:01.459Z,-3.60
2022-12-11T02:17:49.723Z,-3.80
2022-12-11T02:20:38.538Z,-3.70
2022-12-11T02:23:24.057Z,-3.60
2022-12-11T02:26:14.846Z,-3.70
2022-12-11T02:28:53.402Z,-3.80
2022-12-11T02:31:38.329Z,-3.70
2022-12-11T02:34:12.219Z,-3.80
2022-12-11T02:36:43.596Z,-3.90
2022-12-11T02:39:13.138Z,-3.90
2022-12-11T02:41:44.018Z,-3.90
2022-12-11T02:44:12.503Z,-4.00
2022-12-11T02:46:40.414Z,-4.00
2022-12-11T02:49:09.629Z,-3.90
2022-12-11T02:51:40.118Z,-3.90
2022-12-11T02:54:12.352Z,-3.90
2022-12-11T02:56:47.489Z,-4.00
2022-12-11T02:59:38.628Z,-4.00
2022-12-11T03:02:06.011Z,-3.90
2022-12-11T03:04:35.388Z,-3.80
2022-12-11T03:07:13.966Z,-3.90
2022-12-11T03:09:42.862Z,-3.90
2022-12-11T03:12:13.563Z,-3.80
2022-12-11T03:14:41.511Z,-3.80
2022-12-11T03:17:17.301Z,-3.90
2022-12-11T03:20:07.262Z,-3.80
2022-12-11T03:22:47.412Z,-3.90
2022-12-11T03:25:23.656Z,-4.00
2022-12-11T03:27:56.252Z,-4.00
2022-12-11T03:30:25.188Z,-4.20
2022-12-11T03:32:56.977Z,-4.20
2022-12-11T03:35:33.428Z,-4.20
2022-12-11T03:38:07.308Z,-4.10
2022-12-11T03:40:36.170Z,-4.20
2022-12-11T03:43:05.019Z,-4.10
2022-12-11T03:45:34.761Z,-4.10
2022-12-11T03:48:03.317Z,-4.30
2022-12-11T03:50:32.727Z,-4.20
2022-12-11T03:53:02.080Z,-4.40
2022-12-11T03:55:30.492Z,-4.30
2022-12-11T03:57:57.348Z,-4.40
2022-12-11T04:00:24.821Z,-4.40
2022-12-11T04:03:13.530Z,-4.30
2022-12-11T04:05:49.883Z,-4.20
2022-12-11T04:08:18.630Z,-4.20
2022-12-11T04:10:45.561Z,-4.30
2022-12-11T04:13:12.836Z,-4.50
2022-12-11T04:15:40.341Z,-4.60
2022-12-11T04:18:26.595Z,-4.50
2022-12-11T04:21:39.104Z,-4.50
2022-12-11T04:24:16.103Z,-4.40
2022-12-11T04:26:47.046Z,-4.20
2022-12-11T04:29:14.894Z,-4.20
2022-12-11T04:31:41.790Z,-4.10
2022-12-11T04:34:08.858Z,-4.20
2022-12-11T04:36:36.090Z,-4.20
2022-12-11T04:39:04.778Z,-4.10
2022-12-11T04:41:32.147Z,-4.20
2022-12-11T04:43:59.015Z,-4.30
2022-12-11T04:46:26.091Z,-4.30
2022-12-11T04:48:57.315Z,-4.30
2022-12-11T04:51:25.360Z,-4.30
2022-12-11T04:53:52.350Z,-4.30
2022-12-11T04:56:19.714Z,-4.20
2022-12-11T04:58:47.243Z,-4.30
2022-12-11T05:01:22.365Z,-4.40
2022-12-11T05:03:49.974Z,-4.40
2022-12-11T05:06:17.484Z,-4.40
2022-12-11T05:08:45.497Z,-4.40
2022-12-11T05:11:14.950Z,-4.30
2022-12-11T05:13:42.861Z,-4.30
2022-12-11T05:16:11.835Z,-4.50
2022-12-11T05:18:38.870Z,-4.50
2022-12-11T05:21:09.332Z,-4.50
2022-12-11T05:23:36.730Z,-4.50
2022-12-11T05:26:06.562Z,-4.40
2022-12-11T05:28:36.242Z,-4.40
2022-12-11T05:31:06.220Z,-4.40
2022-12-11T05:33:34.315Z,-4.40
2022-12-11T05:36:01.888Z,-4.40
2022-12-11T05:38:28.772Z,-4.40
2022-12-11T05:41:01.204Z,-4.30
2022-12-11T05:43:30.043Z,-4.30
2022-12-11T05:46:04.834Z,-4.30
2022-12-11T05:48:31.654Z,-4.30
2022-12-11T05:51:00.368Z,-4.30
2022-12-11T05:53:28.523Z,-4.30
2022-12-11T05:56:00.780Z,-4.20
2022-12-11T05:58:28.431Z,-4.20
2022-12-11T06:00:55.254Z,-4.20
2022-12-11T06:03:22.169Z,-4.40
2022-12-11T06:05:49.445Z,-4.30
2022-12-11T06:08:16.379Z,-4.40
2022-12-11T06:10:50.441Z,-4.30
2022-12-11T06:13:17.620Z,-4.30
2022-12-11T06:15:44.615Z,-4.40
2022-12-11T06:18:11.670Z,-4.20
2022-12-11T06:20:39.034Z,-4.10
2022-12-11T06:23:06.154Z,-4.10
2022-12-11T06:25:33.035Z,-4.10
2022-12-11T06:27:59.962Z,-4.20
2022-12-11T06:30:37.674Z,-4.20
2022-12-11T06:33:06.659Z,-4.20
2022-12-11T06:35:40.054Z,-4.20
2022-12-11T06:38:08.473Z,-4.20
2022-12-11T06:40:35.318Z,-4.20
2022-12-11T06:43:02.276Z,-4.10
2022-12-11T06:45:29.213Z,-4.10
2022-12-11T06:47:56.155Z,-4.20
2022-12-11T06:50:23.111Z,-4.30
2022-12-11T06:52:49.982Z,-4.40
2022-12-11T06:55:16.922Z,-4.40
2022-12-11T06:57:43.883Z,-4.50
2022-12-11T07:00:11.501Z,-4.50
2022-12-11T07:02:38.614Z,-4.60
2022-12-11T07:05:06.239Z,-4.60
2022-12-11T07:07:33.389Z,-4.50
2022-12-11T07:10:05.982Z,-4.50
2022-12-11T07:12:35.044Z,-4.70
2022-12-11T07:15:01.908Z,-4.70
2022-12-11T07:17:29.632Z,-4.70
2022-12-11T07:19:56.646Z,-4.70
2022-12-11T07:22:23.659Z,-5.00
2022-12-11T07:24:50.518Z,-5.10
2022-12-11T07:27:17.367Z,-5.10
2022-12-11T07:29:45.081Z,-5.00
2022-12-11T07:32:11.996Z,-5.10
2022-12-11T07:34:39.111Z,-5.10
2022-12-11T07:37:06.129Z,-5.10
2022-12-11T07:39:33.021Z,-5.00
2022-12-11T07:41:59.860Z,-4.80
2022-12-11T07:44:26.763Z,-4.80
2022-12-11T07:46:53.602Z,-4.80
2022-12-11T07:49:20.500Z,-4.90
2022-12-11T07:51:47.353Z,-4.90
2022-12-11T07:54:16.962Z,-4.90
2022-12-11T07:56:47.457Z,-4.90
2022-12-11T07:59:17.015Z,-4.90
2022-12-11T08:01:44.270Z,-5.00
2022-12-11T08:04:15.766Z,-5.00
2022-12-11T08:06:43.469Z,-4.90
2022-12-11T08:09:17.441Z,-4.70
2022-12-11T08:11:49.961Z,-4.80
2022-12-11T08:14:17.126Z,-4.80
2022-12-11T08:16:44.254Z,-4.80
2022-12-11T08:19:15.228Z,-4.90
2022-12-11T08:21:42.345Z,-4.80
2022-12-11T08:24:09.426Z,-4.80
2022-12-11T08:26:36.374Z,-4.70
2022-12-11T08:29:04.072Z,-4.70
2022-12-11T08:31:31.388Z,-4.80
2022-12-11T08:33:58.822Z,-4.70
2022-12-11T08:36:26.060Z,-4.80
2022-12-11T08:38:55.108Z,-4.70
2022-12-11T08:41:27.642Z,-4.60
2022-12-11T08:43:55.365Z,-4.50
2022-12-11T08:57:31.363Z,-4.40
2022-12-11T08:59:58.217Z,-4.10
2022-12-11T09:02:25.064Z,-4.10
2022-12-11T09:04:51.940Z,-4.20
2022-12-11T09:07:18.860Z,-4.40
2022-12-11T09:09:45.770Z,-4.40
2022-12-11T09:12:12.624Z,-4.50
2022-12-11T09:14:39.561Z,-4.40
2022-12-11T09:17:06.540Z,-4.60
2022-12-11T09:19:33.404Z,-4.70
2022-12-11T09:22:00.214Z,-4.60
2022-12-11T09:24:27.057Z,-4.50
2022-12-11T09:26:54.661Z,-4.40
2022-12-11T09:29:21.727Z,-4.30
2022-12-11T09:31:49.576Z,-4.30
2022-12-11T09:34:16.424Z,-4.30
2022-12-11T09:36:44.454Z,-4.30
2022-12-11T09:39:13.355Z,-4.30
2022-12-11T09:41:52.121Z,-4.30
2022-12-11T09:44:21.976Z,-4.20
2022-12-11T09:46:50.978Z,-4.30
2022-12-11T09:49:23.735Z,-4.30
2022-12-11T09:52:10.720Z,-4.20
2022-12-11T09:54:43.001Z,-4.20
2022-12-11T09:57:16.939Z,-4.10
2022-12-11T10:00:11.305Z,-4.10
2022-12-11T10:02:47.126Z,-4.10
2022-12-11T10:05:39.265Z,-4.10
2022-12-11T10:08:42.126Z,-4.10
2022-12-11T10:11:41.257Z,-4.10
2022-12-11T10:14:35.872Z,-4.10
2022-12-11T10:17:17.735Z,-4.20
2022-12-11T10:19:45.145Z,-4.10
2022-12-11T10:22:23.778Z,-3.90
2022-12-11T10:25:15.303Z,-3.90
2022-12-11T10:27:42.276Z,-3.90
2022-12-11T10:30:24.594Z,-4.10
2022-12-11T10:33:07.045Z,-4.10
2022-12-11T10:35:40.653Z,-4.00
2022-12-11T10:38:13.883Z,-4.00
2022-12-11T10:40:45.259Z,-4.10
2022-12-11T10:43:12.540Z,-4.10
2022-12-11T10:45:39.571Z,-4.10
2022-12-11T10:48:11.076Z,-4.10
2022-12-11T10:50:37.978Z,-4.10
2022-12-11T10:53:05.858Z,-4.10
2022-12-11T10:55:45.256Z,-4.20
2022-12-11T10:58:19.226Z,-4.10
2022-12-11T11:00:46.847Z,-4.10
2022-12-11T11:03:29.513Z,-4.10
2022-12-11T11:06:04.059Z,-4.10
2022-12-11T11:08:44.396Z,-4.10
2022-12-11T11:11:33.961Z,-4.00
2022-12-11T11:14:09.900Z,-3.90
2022-12-11T11:16:41.485Z,-3.90
2022-12-11T11:19:16.555Z,-4.00
2022-12-11T11:21:50.778Z,-4.00
2022-12-11T11:24:30.576Z,-4.20
2022-12-11T11:27:16.481Z,-4.00
2022-12-11T11:29:47.762Z,-4.10
2022-12-11T11:32:23.719Z,-4.00
2022-12-11T11:34:50.662Z,-4.00
2022-12-11T11:37:35.573Z,-4.00
2022-12-11T11:40:11.603Z,-3.90
2022-12-11T11:43:06.937Z,-4.00
2022-12-11T11:46:00.077Z,-4.00
2022-12-11T11:48:45.426Z,-3.90
2022-12-11T11:51:21.702Z,-3.90
2022-12-11T11:53:51.388Z,-3.90
2022-12-11T11:56:26.157Z,-4.00
2022-12-11T11:59:06.482Z,-4.00
2022-12-11T12:01:34.784Z,-4.00
2022-12-11T12:04:03.741Z,-4.00
2022-12-11T12:06:36.629Z,-4.10
2022-12-11T12:09:13.052Z,-4.00
2022-12-11T12:11:46.853Z,-3.90
2022-12-11T12:14:51.244Z,-3.90
2022-12-11T12:17:09.508Z,-3.90
2022-12-11T12:19:56.759Z,-4.00
2022-12-11T12:22:27.996Z,-4.00
2022-12-11T12:25:33.025Z,-4.00
2022-12-11T12:28:15.974Z,-3.90
2022-12-11T12:31:09.150Z,-3.90
2022-12-11T12:33:55.085Z,-3.80
2022-12-11T12:36:47.666Z,-3.70
2022-12-11T12:39:25.593Z,-3.70
2022-12-11T12:42:11.117Z,-3.70
2022-12-11T12:44:58.128Z,-3.70
2022-12-11T12:47:28.746Z,-3.70
2022-12-11T12:49:58.036Z,-3.70
2022-12-11T12:52:37.287Z,-3.70
2022-12-11T12:55:25.895Z,-3.80
2022-12-11T12:58:07.974Z,-3.80
2022-12-11T13:00:43.768Z,-3.80
2022-12-11T13:03:13.727Z,-3.80
2022-12-11T13:05:43.366Z,-3.80
2022-12-11T13:08:13.068Z,-3.70
2022-12-11T13:10:43.513Z,-3.70
2022-12-11T13:13:36.600Z,-3.60
2022-12-11T13:16:25.871Z,-3.60
2022-12-11T13:19:02.519Z,-3.70
2022-12-11T13:21:40.515Z,-3.60
2022-12-11T13:24:13.411Z,-3.50
2022-12-11T13:26:41.252Z,-3.60
2022-12-11T13:29:29.643Z,-3.70
2022-12-11T13:32:05.232Z,-3.70
2022-12-11T13:34:35.197Z,-3.80
2022-12-11T13:37:04.411Z,-3.80
2022-12-11T13:39:35.114Z,-3.80
2022-12-11T13:42:10.829Z,-3.80
2022-12-11T13:44:42.681Z,-3.70
2022-12-11T13:47:14.828Z,-3.80
2022-12-11T13:49:44.267Z,-3.80
2022-12-11T13:52:21.384Z,-3.90
2022-12-11T13:54:52.362Z,-3.90
2022-12-11T13:57:22.783Z,-3.90
2022-12-11T13:59:53.348Z,-3.70
2022-12-11T14:02:34.012Z,-3.80
2022-12-11T14:05:04.207Z,-3.80
2022-12-11T14:07:35.456Z,-3.70
2022-12-11T14:10:14.653Z,-3.70
2022-12-11T14:13:04.566Z,-3.70
2022-12-11T14:15:33.333Z,-3.80
2022-12-11T14:18:01.014Z,-3.80
2022-12-11T14:20:33.836Z,-3.70
2022-12-11T14:23:21.518Z,-3.70
2022-12-11T14:25:57.401Z,-3.60
2022-12-11T14:28:27.684Z,-3.70
2022-12-11T14:30:59.715Z,-3.70
2022-12-11T14:33:33.943Z,-3.60
2022-12-11T14:36:01.604Z,-3.60
2022-12-11T14:39:02.252Z,-3.60
2022-12-11T14:41:34.671Z,-3.60
2022-12-11T14:44:04.408Z,-3.70
2022-12-11T14:46:45.639Z,-3.70
2022-12-11T14:49:24.686Z,-3.70
2022-12-11T14:51:53.892Z,-3.70
2022-12-11T14:54:31.563Z,-3.60
2022-12-11T14:57:00.561Z,-3.60
2022-12-11T14:59:32.021Z,-3.60
2022-12-11T15:02:21.821Z,-3.50
2022-12-11T15:05:13.066Z,-3.50
2022-12-11T15:07:53.881Z,-3.50
2022-12-11T15:10:23.710Z,-3.40
2022-12-11T15:12:50.906Z,-3.50
2022-12-11T15:15:18.572Z,-3.40
2022-12-11T15:17:52.463Z,-3.30
2022-12-11T15:20:26.850Z,-3.30
2022-12-11T15:22:54.613Z,-3.30
2022-12-11T15:25:27.955Z,-3.30
2022-12-11T15:28:00.361Z,-3.50
2022-12-11T15:30:33.875Z,-3.50
2022-12-11T15:33:09.840Z,-3.40
2022-12-11T15:35:38.856Z,-3.30
2022-12-11T15:38:06.241Z,-3.40
2022-12-11T15:40:33.215Z,-3.40
2022-12-11T15:43:02.331Z,-3.50
2022-12-11T15:45:29.358Z,-3.50
2022-12-11T15:47:57.249Z,-3.40
2022-12-11T15:50:26.527Z,-3.50
2022-12-11T15:52:55.101Z,-3.40
2022-12-11T15:55:24.020Z,-3.40
2022-12-11T15:57:56.768Z,-3.40
2022-12-11T16:00:28.283Z,-3.30
2022-12-11T16:02:55.569Z,-3.40
2022-12-11T16:05:22.575Z,-3.30
2022-12-11T16:07:52.314Z,-3.30
2022-12-11T16:10:20.793Z,-3.40
2022-12-11T16:12:48.076Z,-3.30
2022-12-11T16:15:23.088Z,-3.30
2022-12-11T16:17:59.648Z,-3.30
2022-12-11T16:20:26.460Z,-3.40
2022-12-11T16:22:53.306Z,-3.40
2022-12-11T16:25:20.139Z,-3.40
2022-12-11T16:27:47.172Z,-3.40
2022-12-11T16:30:14.450Z,-3.40
2022-12-11T16:32:41.473Z,-3.40
2022-12-11T16:35:08.314Z,-3.50
2022-12-11T16:37:35.212Z,-3.50
2022-12-11T16:40:01.994Z,-3.50
2022-12-11T16:42:28.864Z,-3.50
2022-12-11T16:45:18.493Z,-3.40
2022-12-11T16:47:45.494Z,-3.50
2022-12-11T16:50:15.154Z,-3.60
2022-12-11T16:52:42.504Z,-3.60
2022-12-11T16:55:11.011Z,-3.70
2022-12-11T16:57:38.528Z,-3.70
2022-12-11T17:00:12.124Z,-3.70
2022-12-11T17:02:39.532Z,-3.60
2022-12-11T17:05:06.813Z,-3.60
2022-12-11T17:07:34.678Z,-3.70
2022-12-11T17:10:02.987Z,-3.60
2022-12-11T17:12:30.071Z,-3.60
2022-12-11T17:14:57.276Z,-3.70
2022-12-11T17:17:24.929Z,-3.90
2022-12-11T17:19:51.873Z,-3.80
2022-12-11T17:22:18.908Z,-3.70
2022-12-11T17:24:45.704Z,-3.70
2022-12-11T17:27:12.648Z,-3.80
2022-12-11T17:29:39.491Z,-3.90
2022-12-11T17:32:06.570Z,-3.70
2022-12-11T17:34:38.071Z,-3.80
2022-12-11T17:37:06.112Z,-3.80
2022-12-11T17:39:33.836Z,-3.90
2022-12-11T17:42:01.138Z,-3.90
2022-12-11T17:44:30.757Z,-4.10
2022-12-11T17:46:58.848Z,-4.10
2022-12-11T17:49:26.035Z,-4.00
2022-12-11T17:51:55.231Z,-4.00
2022-12-11T17:54:23.196Z,-4.00
2022-12-11T17:56:50.501Z,-3.90
2022-12-11T17:59:19.064Z,-3.90
2022-12-11T18:01:46.000Z,-4.00
2022-12-11T18:04:13.371Z,-4.00
2022-12-11T18:06:40.415Z,-4.00
2022-12-11T18:09:07.742Z,-4.10
2022-12-11T18:11:35.020Z,-4.10
2022-12-11T18:14:01.982Z,-4.10
2022-12-11T18:16:33.128Z,-4.00
2022-12-11T18:19:00.557Z,-4.00
2022-12-11T18:21:30.802Z,-4.00
2022-12-11T18:23:58.348Z,-4.00
2022-12-11T18:26:26.008Z,-4.10
2022-12-11T18:28:53.547Z,-4.20
2022-12-11T18:31:21.786Z,-4.00
2022-12-11T18:33:49.257Z,-4.00
2022-12-11T18:36:17.549Z,-4.20
2022-12-11T18:38:45.116Z,-4.20
2022-12-11T18:41:13.509Z,-4.10
2022-12-11T18:43:41.011Z,-4.00
2022-12-11T18:46:10.789Z,-4.10
2022-12-11T18:48:37.837Z,-4.00
2022-12-11T18:51:09.679Z,-4.00
2022-12-11T18:53:39.254Z,-4.00
2022-12-11T18:56:13.318Z,-4.10
2022-12-11T18:58:41.038Z,-4.20
2022-12-11T19:01:24.219Z,-4.20
2022-12-11T19:03:58.872Z,-4.20
2022-12-11T19:06:30.410Z,-4.30
2022-12-11T19:08:57.947Z,-4.30
2022-12-11T19:11:27.069Z,-4.20
2022-12-11T19:13:56.876Z,-4.20
2022-12-11T19:16:36.421Z,-4.20
2022-12-11T19:19:11.701Z,-4.10
2022-12-11T19:21:38.888Z,-4.20
2022-12-11T19:24:07.878Z,-4.20
2022-12-11T19:26:36.291Z,-4.10
2022-12-11T19:29:04.160Z,-4.00
2022-12-11T19:31:32.525Z,-4.00
2022-12-11T19:34:00.486Z,-4.00
2022-12-11T19:36:29.303Z,-4.00
2022-12-11T19:39:01.464Z,-4.00
2022-12-11T19:41:30.388Z,-4.00
2022-12-11T19:43:58.374Z,-4.00
2022-12-11T19:46:25.553Z,-4.00
2022-12-11T19:48:54.557Z,-4.00
2022-12-11T19:51:30.404Z,-4.10
2022-12-11T19:53:57.523Z,-4.10
2022-12-11T19:56:24.807Z,-4.00
2022-12-11T19:58:51.847Z,-4.00
2022-12-11T20:01:31.170Z,-4.00
2022-12-11T20:04:00.945Z,-4.00
2022-12-11T20:06:36.432Z,-4.00
2022-12-11T20:09:06.098Z,-4.00
2022-12-11T20:11:34.767Z,-4.00
2022-12-11T20:14:23.542Z,-4.00
2022-12-11T20:17:10.072Z,-4.00
2022-12-11T20:19:38.260Z,-4.10
2022-12-11T20:22:05.652Z,-4.10
2022-12-11T20:24:32.574Z,-4.10
2022-12-11T20:26:59.469Z,-4.00
2022-12-11T20:29:27.909Z,-4.00
2022-12-11T20:31:54.799Z,-4.10
2022-12-11T20:34:21.735Z,-4.10
2022-12-11T20:36:48.955Z,-3.90
2022-12-11T20:39:15.880Z,-3.90
2022-12-11T20:41:43.946Z,-3.90
2022-12-11T20:44:10.793Z,-3.90
2022-12-11T20:46:37.655Z,-4.00
2022-12-11T20:49:04.636Z,-4.00
2022-12-11T20:51:32.800Z,-3.90
2022-12-11T20:53:59.845Z,-3.90
2022-12-11T20:56:28.940Z,-3.90
2022-12-11T20:58:56.907Z,-3.90
2022-12-11T21:01:26.902Z,-3.90
2022-12-11T21:03:53.858Z,-3.80
2022-12-11T21:06:31.199Z,-3.90
2022-12-11T21:09:00.343Z,-3.80
2022-12-11T21:11:27.701Z,-3.90
2022-12-11T21:13:54.944Z,-3.80
2022-12-11T21:16:22.201Z,-3.80
2022-12-11T21:18:50.410Z,-3.80
2022-12-11T21:21:17.660Z,-3.80
2022-12-11T21:23:45.357Z,-3.70
2022-12-11T21:26:13.001Z,-3.80
2022-12-11T21:28:40.229Z,-3.70
2022-12-11T21:31:11.282Z,-3.70
2022-12-11T21:33:38.191Z,-3.80
2022-12-11T21:36:07.396Z,-3.70
2022-12-11T21:38:34.282Z,-3.70
2022-12-11T21:41:14.147Z,-3.70
2022-12-11T21:44:14.268Z,-3.60
2022-12-11T21:46:29.608Z,-3.60
2022-12-11T21:48:56.444Z,-3.70
2022-12-11T21:51:35.703Z,-3.70
2022-12-11T21:54:06.972Z,-3.70
2022-12-11T21:56:34.090Z,-3.70
2022-12-11T21:59:01.697Z,-3.60
2022-12-11T22:01:32.011Z,-3.60
2022-12-11T22:03:59.619Z,-3.60
2022-12-11T22:06:26.501Z,-3.60
2022-12-11T22:08:53.490Z,-3.50
2022-12-11T22:11:26.992Z,-3.50
2022-12-11T22:13:54.166Z,-3.50
2022-12-11T22:16:21.237Z,-3.60
2022-12-11T22:18:48.140Z,-3.60
2022-12-11T22:21:15.680Z,-3.50
2022-12-11T22:23:43.174Z,-3.60
2022-12-11T22:26:23.468Z,-3.60
2022-12-11T22:28:50.498Z,-3.50
2022-12-11T22:31:20.644Z,-3.50
2022-12-11T22:33:51.411Z,-3.50
2022-12-11T22:36:18.980Z,-3.50
2022-12-11T22:38:46.745Z,-3.50
2022-12-11T22:41:20.548Z,-3.50
2022-12-11T22:43:49.452Z,-3.50
2022-12-11T22:46:17.720Z,-3.40
2022-12-11T22:48:44.652Z,-3.40
2022-12-11T22:51:12.265Z,-3.40
2022-12-11T22:53:39.238Z,-3.40
2022-12-11T22:56:11.373Z,-3.50
2022-12-11T22:58:38.626Z,-3.50
2022-12-11T23:01:13.538Z,-3.40
2022-12-11T23:03:40.528Z,-3.40
2022-12-11T23:06:09.506Z,-3.40
2022-12-11T23:08:36.783Z,-3.50
2022-12-11T23:11:15.017Z,-3.50
2022-12-11T23:13:42.343Z,-3.50
2022-12-11T23:16:10.114Z,-3.50
2022-12-11T23:18:39.713Z,-3.50
2022-12-11T23:21:07.588Z,-3.50
2022-12-11T23:23:35.000Z,-3.50
2022-12-11T23:26:06.883Z,-3.50
2022-12-11T23:28:33.772Z,-3.40
2022-12-11T23:31:00.739Z,-3.40
2022-12-11T23:33:27.723Z,-3.40
2022-12-11T23:35:54.899Z,-3.40
2022-12-11T23:38:21.805Z,-3.30
2022-12-11T23:40:48.839Z,-3.20
2022-12-11T23:43:15.624Z,-3.20
2022-12-11T23:45:46.216Z,-3.30
2022-12-11T23:48:14.209Z,-3.20
2022-12-11T23:50:42.665Z,-3.20
2022-12-11T23:53:10.035Z,-3.20
2022-12-11T23:55:39.947Z,-3.10
2022-12-11T23:58:06.982Z,-3.20
